createdAt,value
2022-10-01T00:02:10.055Z,10.20
2022-10-01T00:04:39.525Z,10.20
2022-10-01T00:07:10.698Z,10.20
2022-10-01T00:09:38.472Z,10.20
2022-10-01T00:12:06.474Z,10.20
2022-10-01T00:14:34.255Z,10.20
2022-10-01T00:17:02.072Z,10.30
2022-10-01T00:19:31.467Z,10.30
2022-10-01T00:21:59.230Z,10.30
2022-10-01T00:24:27.087Z,10.30
2022-10-01T00:26:54.810Z,10.30
2022-10-01T00:29:22.558Z,10.30
2022-10-01T00:31:50.441Z,10.30
2022-10-01T00:34:18.255Z,10.30
2022-10-01T00:36:47.806Z,10.30
2022-10-01T00:39:15.729Z,10.30
2022-10-01T00:41:43.909Z,10.30
2022-10-01T00:44:35.787Z,10.30
2022-10-01T00:47:10.367Z,10.30
2022-10-01T00:49:40.849Z,10.30
2022-10-01T00:52:14.164Z,10.30
2022-10-01T00:54:45.562Z,10.30
2022-10-01T00:57:17.064Z,10.30
2022-10-01T00:59:45.608Z,10.30
2022-10-01T01:02:13.744Z,10.30
2022-10-01T01:04:42.536Z,10.30
2022-10-01T01:07:12.987Z,10.30
2022-10-01T01:09:44.338Z,10.30
2022-10-01T01:12:21.000Z,10.30
2022-10-01T01:14:58.147Z,10.40
2022-10-01T01:17:33.122Z,10.30
2022-10-01T01:20:23.759Z,10.30
2022-10-01T01:23:02.293Z,10.30
2022-10-01T01:25:36.850Z,10.20
2022-10-01T01:28:18.649Z,10.20
2022-10-01T01:30:50.932Z,10.00
2022-10-01T01:33:22.025Z,10.00
2022-10-01T01:35:53.139Z,9.90
2022-10-01T01:38:27.912Z,9.80
2022-10-01T01:40:58.646Z,9.70
2022-10-01T01:43:31.246Z,9.60
2022-10-01T01:46:01.167Z,9.60
2022-10-01T01:48:30.636Z,9.50
2022-10-01T01:51:02.842Z,9.50
2022-10-01T01:53:32.133Z,9.50
2022-10-01T01:56:00.663Z,9.50
2022-10-01T01:58:31.416Z,9.40
2022-10-01T02:00:59.170Z,9.40
2022-10-01T02:03:29.168Z,9.40
2022-10-01T02:06:14.283Z,9.40
2022-10-01T02:08:50.432Z,9.40
2022-10-01T02:11:25.053Z,9.30
2022-10-01T02:14:04.939Z,9.30
2022-10-01T02:16:43.053Z,9.20
2022-10-01T02:19:21.406Z,9.20
2022-10-01T02:21:56.335Z,9.20
2022-10-01T02:24:32.091Z,9.20
2022-10-01T02:27:03.783Z,9.20
2022-10-01T02:29:35.058Z,9.10
2022-10-01T02:32:03.567Z,9.10
2022-10-01T02:34:32.609Z,9.10
2022-10-01T02:37:05.195Z,9.00
2022-10-01T02:39:34.994Z,8.90
2022-10-01T02:42:04.510Z,8.90
2022-10-01T02:44:38.458Z,8.90
2022-10-01T02:47:10.642Z,8.80
2022-10-01T02:49:41.436Z,8.70
2022-10-01T02:52:16.292Z,8.70
2022-10-01T02:54:50.317Z,8.70
2022-10-01T02:57:24.731Z,8.70
2022-10-01T02:59:56.402Z,8.60
2022-10-01T03:02:26.724Z,8.60
2022-10-01T03:04:54.852Z,8.50
2022-10-01T03:07:22.649Z,8.50
2022-10-01T03:09:50.952Z,8.50
2022-10-01T03:12:19.227Z,8.50
2022-10-01T03:14:47.577Z,8.50
2022-10-01T03:17:17.710Z,8.40
2022-10-01T03:19:45.609Z,8.30
2022-10-01T03:22:15.487Z,8.40
2022-10-01T03:24:43.217Z,8.30
2022-10-01T03:27:11.599Z,8.30
2022-10-01T03:29:39.350Z,8.30
2022-10-01T03:32:07.131Z,8.30
2022-10-01T03:34:36.474Z,8.30
2022-10-01T03:37:04.316Z,8.20
2022-10-01T03:39:32.277Z,8.20
2022-10-01T03:42:00.052Z,8.20
2022-10-01T03:44:28.353Z,8.20
2022-10-01T03:46:56.314Z,8.10
2022-10-01T03:49:24.278Z,8.00
2022-10-01T03:51:54.214Z,8.00
2022-10-01T03:54:22.474Z,8.00
2022-10-01T03:56:50.583Z,8.00
2022-10-01T03:59:20.135Z,8.00
2022-10-01T04:01:47.978Z,8.00
2022-10-01T04:04:16.891Z,7.90
2022-10-01T04:06:44.723Z,7.90
2022-10-01T04:09:13.798Z,7.90
2022-10-01T04:11:41.545Z,7.90
2022-10-01T04:14:09.659Z,7.90
2022-10-01T04:16:37.449Z,7.90
2022-10-01T04:19:05.902Z,7.90
2022-10-01T04:21:34.677Z,7.90
2022-10-01T04:24:05.060Z,7.80
2022-10-01T04:26:34.137Z,7.90
2022-10-01T04:29:01.890Z,7.80
2022-10-01T04:31:34.930Z,7.90
2022-10-01T04:34:03.483Z,7.80
2022-10-01T04:36:31.239Z,7.80
2022-10-01T04:39:02.014Z,7.80
2022-10-01T04:41:31.792Z,7.80
2022-10-01T04:44:01.616Z,7.90
2022-10-01T04:46:30.002Z,7.80
2022-10-01T04:48:57.928Z,7.80
2022-10-01T04:51:26.298Z,7.80
2022-10-01T04:53:54.315Z,7.80
2022-10-01T04:56:22.374Z,7.70
2022-10-01T04:58:50.133Z,7.80
2022-10-01T05:01:19.288Z,7.80
2022-10-01T05:03:47.526Z,7.80
2022-10-01T05:06:15.249Z,7.80
2022-10-01T05:08:42.977Z,7.80
2022-10-01T05:11:10.738Z,7.80
2022-10-01T05:13:38.504Z,7.80
2022-10-01T05:16:06.566Z,7.90
2022-10-01T05:18:36.033Z,7.80
2022-10-01T05:21:06.443Z,7.80
2022-10-01T05:23:34.727Z,7.80
2022-10-01T05:26:04.214Z,7.80
2022-10-01T05:28:32.314Z,7.80
2022-10-01T05:31:01.335Z,7.80
2022-10-01T05:33:30.294Z,7.90
2022-10-01T05:35:59.535Z,8.00
2022-10-01T05:38:27.277Z,7.90
2022-10-01T05:40:55.118Z,8.00
2022-10-01T05:43:22.944Z,8.00
2022-10-01T05:45:51.182Z,8.10
2022-10-01T05:48:19.213Z,8.10
2022-10-01T05:50:47.056Z,8.10
2022-10-01T05:53:16.371Z,8.20
2022-10-01T05:55:44.190Z,8.30
2022-10-01T05:58:13.843Z,8.40
2022-10-01T06:00:43.386Z,8.50
2022-10-01T06:03:13.496Z,8.60
2022-10-01T06:05:41.479Z,8.70
2022-10-01T06:08:10.560Z,8.70
2022-10-01T06:10:39.851Z,8.80
2022-10-01T06:13:08.404Z,8.90
2022-10-01T06:15:38.539Z,9.00
2022-10-01T06:18:07.805Z,9.10
2022-10-01T06:20:35.906Z,9.10
2022-10-01T06:23:05.682Z,9.20
2022-10-01T06:25:35.330Z,9.20
2022-10-01T06:28:05.881Z,9.30
2022-10-01T06:30:36.779Z,9.40
2022-10-01T06:33:06.435Z,9.50
2022-10-01T06:35:35.422Z,9.60
2022-10-01T06:38:03.582Z,9.70
2022-10-01T06:40:31.846Z,9.70
2022-10-01T06:42:59.901Z,9.80
2022-10-01T06:45:30.760Z,9.90
2022-10-01T06:48:02.433Z,9.90
2022-10-01T06:50:30.846Z,10.00
2022-10-01T06:53:00.302Z,10.00
2022-10-01T06:55:31.016Z,10.10
2022-10-01T06:58:00.286Z,10.10
2022-10-01T07:00:30.723Z,10.20
2022-10-01T07:02:58.911Z,10.20
2022-10-01T07:05:27.689Z,10.30
2022-10-01T07:07:55.419Z,10.30
2022-10-01T07:10:24.366Z,10.40
2022-10-01T07:12:52.706Z,10.50
2022-10-01T07:15:22.607Z,10.50
2022-10-01T07:17:52.619Z,10.50
2022-10-01T07:20:21.782Z,10.50
2022-10-01T07:22:49.921Z,10.60
2022-10-01T07:25:18.025Z,10.70
2022-10-01T07:27:45.810Z,10.70
2022-10-01T07:30:13.603Z,10.70
2022-10-01T07:32:45.727Z,10.80
2022-10-01T07:35:15.042Z,10.80
2022-10-01T07:37:42.807Z,10.90
2022-10-01T07:40:11.063Z,10.90
2022-10-01T07:42:39.239Z,11.00
2022-10-01T07:45:08.314Z,11.00
2022-10-01T07:47:36.073Z,11.10
2022-10-01T07:50:04.499Z,11.20
2022-10-01T07:52:33.712Z,11.20
2022-10-01T07:55:01.536Z,11.20
2022-10-01T07:57:29.473Z,11.30
2022-10-01T07:59:57.215Z,11.40
2022-10-01T08:02:24.986Z,11.40
2022-10-01T08:05:10.148Z,11.50
2022-10-01T08:07:39.271Z,11.50
2022-10-01T08:10:07.495Z,11.50
2022-10-01T08:12:35.628Z,11.60
2022-10-01T08:15:03.626Z,11.60
2022-10-01T08:17:31.474Z,11.70
2022-10-01T08:19:59.198Z,11.70
2022-10-01T08:22:26.996Z,11.70
2022-10-01T08:24:56.066Z,11.80
2022-10-01T08:27:25.191Z,11.90
2022-10-01T08:29:53.387Z,11.90
2022-10-01T08:32:21.715Z,11.90
2022-10-01T08:34:54.498Z,11.90
2022-10-01T08:37:28.246Z,12.00
2022-10-01T08:39:57.891Z,12.00
2022-10-01T08:42:40.198Z,12.00
2022-10-01T08:45:14.984Z,12.00
2022-10-01T08:47:49.362Z,12.10
2022-10-01T08:50:32.335Z,12.00
2022-10-01T08:53:04.395Z,12.10
2022-10-01T08:55:37.349Z,12.10
2022-10-01T08:58:08.037Z,12.10
2022-10-01T09:00:39.980Z,12.20
2022-10-01T09:03:13.118Z,12.10
2022-10-01T09:05:51.198Z,12.10
2022-10-01T09:08:25.013Z,12.10
2022-10-01T09:11:00.559Z,12.10
2022-10-01T09:13:44.010Z,12.20
2022-10-01T09:16:19.522Z,12.30
2022-10-01T09:19:01.954Z,12.20
2022-10-01T09:21:44.633Z,12.30
2022-10-01T09:24:16.073Z,12.30
2022-10-01T09:26:49.366Z,12.40
2022-10-01T09:29:22.972Z,12.50
2022-10-01T09:31:53.921Z,12.60
2022-10-01T09:34:29.990Z,12.60
2022-10-01T09:37:06.321Z,12.70
2022-10-01T09:39:40.231Z,12.60
2022-10-01T09:42:09.605Z,12.50
2022-10-01T09:44:38.002Z,12.40
2022-10-01T09:47:17.481Z,12.30
2022-10-01T09:49:46.061Z,12.40
2022-10-01T09:52:18.321Z,12.30
2022-10-01T09:54:50.168Z,12.40
2022-10-01T09:57:26.438Z,12.30
2022-10-01T10:00:01.442Z,12.20
2022-10-01T10:02:33.451Z,12.20
2022-10-01T10:05:02.253Z,12.20
2022-10-01T10:07:32.337Z,12.30
2022-10-01T10:10:09.696Z,12.20
2022-10-01T10:12:39.084Z,12.10
2022-10-01T10:15:09.841Z,12.00
2022-10-01T10:17:41.782Z,12.00
2022-10-01T10:20:13.871Z,12.00
2022-10-01T10:22:41.671Z,12.00
2022-10-01T10:25:17.356Z,11.90
2022-10-01T10:27:55.308Z,11.90
2022-10-01T10:30:26.186Z,11.80
2022-10-01T10:33:02.301Z,11.80
2022-10-01T10:35:31.741Z,11.80
2022-10-01T10:38:01.363Z,11.70
2022-10-01T10:40:35.655Z,11.70
2022-10-01T10:43:04.849Z,11.60
2022-10-01T10:45:37.247Z,11.60
2022-10-01T10:48:07.735Z,11.60
2022-10-01T10:50:38.817Z,11.60
2022-10-01T10:53:21.944Z,11.50
2022-10-01T10:55:58.237Z,11.50
2022-10-01T10:58:29.802Z,11.30
2022-10-01T11:01:00.167Z,11.30
2022-10-01T11:03:31.655Z,11.30
2022-10-01T11:06:05.499Z,11.40
2022-10-01T11:08:35.640Z,11.30
2022-10-01T11:11:14.974Z,11.30
2022-10-01T11:14:03.178Z,11.30
2022-10-01T11:16:49.815Z,11.40
2022-10-01T11:19:37.742Z,11.40
2022-10-01T11:22:24.263Z,11.30
2022-10-01T11:25:01.916Z,11.40
2022-10-01T11:27:42.526Z,11.40
2022-10-01T11:30:19.405Z,11.40
2022-10-01T11:33:03.529Z,11.40
2022-10-01T11:35:49.511Z,11.30
2022-10-01T11:38:48.456Z,11.30
2022-10-01T11:41:34.775Z,11.30
2022-10-01T11:44:08.510Z,11.30
2022-10-01T11:46:54.347Z,11.30
2022-10-01T11:49:29.921Z,11.20
2022-10-01T11:52:09.096Z,11.20
2022-10-01T11:54:44.179Z,11.10
2022-10-01T11:57:33.035Z,11.10
2022-10-01T12:00:06.526Z,11.10
2022-10-01T12:02:50.786Z,11.00
2022-10-01T12:05:21.135Z,11.00
2022-10-01T12:07:55.065Z,11.00
2022-10-01T12:10:37.446Z,11.00
2022-10-01T12:13:11.628Z,11.00
2022-10-01T12:15:46.480Z,11.00
2022-10-01T12:18:21.543Z,11.00
2022-10-01T12:20:52.110Z,11.00
2022-10-01T12:23:22.230Z,11.00
2022-10-01T12:25:58.539Z,11.00
2022-10-01T12:28:32.990Z,11.10
2022-10-01T12:31:07.811Z,11.10
2022-10-01T12:34:03.007Z,11.00
2022-10-01T12:36:44.306Z,11.00
2022-10-01T12:39:29.043Z,11.00
2022-10-01T12:42:06.715Z,11.00
2022-10-01T12:44:51.476Z,11.00
2022-10-01T12:47:38.665Z,11.00
2022-10-01T12:50:21.928Z,11.00
2022-10-01T12:52:58.410Z,11.00
2022-10-01T12:55:48.500Z,11.00
2022-10-01T12:58:33.681Z,11.10
2022-10-01T13:01:11.409Z,11.00
2022-10-01T13:04:06.227Z,11.10
2022-10-01T13:06:47.308Z,11.10
2022-10-01T13:09:21.663Z,11.10
2022-10-01T13:12:03.065Z,11.00
2022-10-01T13:14:33.173Z,11.00
2022-10-01T13:17:05.959Z,11.00
2022-10-01T13:19:41.400Z,10.90
2022-10-01T13:22:17.195Z,10.90
2022-10-01T13:24:49.572Z,10.90
2022-10-01T13:27:24.767Z,10.90
2022-10-01T13:30:00.254Z,11.00
2022-10-01T13:32:31.255Z,11.00
2022-10-01T13:35:01.061Z,10.90
2022-10-01T13:37:41.190Z,10.90
2022-10-01T13:40:23.918Z,11.00
2022-10-01T13:42:53.107Z,11.00
2022-10-01T13:45:27.533Z,11.00
2022-10-01T13:48:07.713Z,11.00
2022-10-01T13:50:37.059Z,11.00
2022-10-01T13:53:16.419Z,11.10
2022-10-01T13:55:46.560Z,11.10
2022-10-01T13:58:31.614Z,11.00
2022-10-01T14:01:01.127Z,11.00
2022-10-01T14:03:40.278Z,11.00
2022-10-01T14:06:15.859Z,11.00
2022-10-01T14:08:48.502Z,11.10
2022-10-01T14:11:40.027Z,11.00
2022-10-01T14:14:33.495Z,11.00
2022-10-01T14:17:01.915Z,11.10
2022-10-01T14:19:29.907Z,11.20
2022-10-01T14:22:14.563Z,11.20
2022-10-01T14:25:04.044Z,11.30
2022-10-01T14:27:37.926Z,11.30
2022-10-01T14:30:08.284Z,11.30
2022-10-01T14:33:03.832Z,11.20
2022-10-01T14:35:34.758Z,11.30
2022-10-01T14:38:05.331Z,11.40
2022-10-01T14:40:38.982Z,11.30
2022-10-01T14:43:17.584Z,11.40
2022-10-01T14:45:53.343Z,11.50
2022-10-01T14:48:21.102Z,11.50
2022-10-01T14:50:51.987Z,11.60
2022-10-01T14:53:24.442Z,11.50
2022-10-01T14:55:57.114Z,11.50
2022-10-01T14:58:28.935Z,11.60
2022-10-01T15:00:57.692Z,11.70
2022-10-01T15:03:25.946Z,11.60
2022-10-01T15:06:03.980Z,11.60
2022-10-01T15:08:40.242Z,11.60
2022-10-01T15:11:12.751Z,11.50
2022-10-01T15:13:43.285Z,11.60
2022-10-01T15:16:13.599Z,11.70
2022-10-01T15:18:46.404Z,11.60
2022-10-01T15:21:20.201Z,11.60
2022-10-01T15:23:49.756Z,11.60
2022-10-01T15:26:25.156Z,11.60
2022-10-01T15:29:02.774Z,11.50
2022-10-01T15:31:31.021Z,11.50
2022-10-01T15:34:01.883Z,11.50
2022-10-01T15:36:30.346Z,11.50
2022-10-01T15:38:58.907Z,11.50
2022-10-01T15:41:32.834Z,11.50
2022-10-01T15:44:04.816Z,11.50
2022-10-01T15:46:35.324Z,11.50
2022-10-01T15:49:17.891Z,11.50
2022-10-01T15:52:11.092Z,11.50
2022-10-01T15:54:41.218Z,11.50
2022-10-01T15:57:16.965Z,11.50
2022-10-01T15:59:45.491Z,11.40
2022-10-01T16:02:21.688Z,11.50
2022-10-01T16:04:56.054Z,11.50
2022-10-01T16:07:29.335Z,11.50
2022-10-01T16:09:59.472Z,11.50
2022-10-01T16:12:29.609Z,11.50
2022-10-01T16:14:59.542Z,11.50
2022-10-01T16:17:30.571Z,11.50
2022-10-01T16:20:00.423Z,11.50
2022-10-01T16:22:31.651Z,11.50
2022-10-01T16:25:00.885Z,11.50
2022-10-01T16:27:32.876Z,11.50
2022-10-01T16:30:05.692Z,11.50
2022-10-01T16:32:34.021Z,11.50
2022-10-01T16:35:17.761Z,11.60
2022-10-01T16:37:47.454Z,11.60
2022-10-01T16:40:16.474Z,11.50
2022-10-01T16:42:46.532Z,11.60
2022-10-01T16:45:16.871Z,11.50
2022-10-01T16:47:44.995Z,11.60
2022-10-01T16:50:16.425Z,11.60
2022-10-01T16:52:44.213Z,11.50
2022-10-01T16:55:19.062Z,11.60
2022-10-01T16:57:48.255Z,11.60
2022-10-01T17:00:16.894Z,11.60
2022-10-01T17:02:46.996Z,11.50
2022-10-01T17:05:19.635Z,11.50
2022-10-01T17:07:47.683Z,11.60
2022-10-01T17:10:16.325Z,11.60
2022-10-01T17:12:45.283Z,11.70
2022-10-01T17:15:17.135Z,11.70
2022-10-01T17:17:45.083Z,11.70
2022-10-01T17:20:13.800Z,11.80
2022-10-01T17:22:42.793Z,11.70
2022-10-01T17:25:16.278Z,11.80
2022-10-01T17:27:44.161Z,11.70
2022-10-01T17:30:13.961Z,11.70
2022-10-01T17:32:42.897Z,11.70
2022-10-01T17:35:11.268Z,11.70
2022-10-01T17:37:39.075Z,11.80
2022-10-01T17:40:08.198Z,11.80
2022-10-01T17:42:36.539Z,11.70
2022-10-01T17:45:07.038Z,11.70
2022-10-01T17:47:36.355Z,11.70
2022-10-01T17:50:04.720Z,11.80
2022-10-01T17:52:33.022Z,11.80
2022-10-01T17:55:00.800Z,11.80
2022-10-01T17:57:28.651Z,11.80
2022-10-01T17:59:56.401Z,11.90
2022-10-01T18:02:40.848Z,11.80
2022-10-01T18:05:14.365Z,11.80
2022-10-01T18:07:42.617Z,11.80
2022-10-01T18:10:13.069Z,11.80
2022-10-01T18:12:41.054Z,11.80
2022-10-01T18:15:10.269Z,11.80
2022-10-01T18:17:43.384Z,11.80
2022-10-01T18:20:20.392Z,11.80
2022-10-01T18:22:48.320Z,11.80
2022-10-01T18:25:16.887Z,11.90
2022-10-01T18:27:45.959Z,11.80
2022-10-01T18:30:13.919Z,11.90
2022-10-01T18:32:44.896Z,11.90
2022-10-01T18:35:22.911Z,11.90
2022-10-01T18:37:53.094Z,11.80
2022-10-01T18:40:24.248Z,11.80
2022-10-01T18:42:58.802Z,11.90
2022-10-01T18:45:41.486Z,11.80
2022-10-01T18:48:38.707Z,11.80
2022-10-01T18:51:19.528Z,11.90
2022-10-01T18:54:13.072Z,11.90
2022-10-01T18:56:48.059Z,11.90
2022-10-01T18:59:51.259Z,11.90
2022-10-01T19:02:34.449Z,11.90
2022-10-01T19:05:39.330Z,11.90
2022-10-01T19:08:25.051Z,11.90
2022-10-01T19:11:04.733Z,11.90
2022-10-01T19:13:42.774Z,11.90
2022-10-01T19:16:22.833Z,12.00
2022-10-01T19:19:02.802Z,12.00
2022-10-01T19:21:39.067Z,12.00
2022-10-01T19:24:39.369Z,12.00
2022-10-01T19:27:19.827Z,12.10
2022-10-01T19:29:59.031Z,12.00
2022-10-01T19:32:31.123Z,12.10
2022-10-01T19:35:04.163Z,12.00
2022-10-01T19:37:38.745Z,12.00
2022-10-01T19:40:16.006Z,12.00
2022-10-01T19:42:49.174Z,12.10
2022-10-01T19:45:24.094Z,12.10
2022-10-01T19:47:57.409Z,12.10
2022-10-01T19:50:30.007Z,12.10
2022-10-01T19:52:59.888Z,12.10
2022-10-01T19:55:35.066Z,12.10
2022-10-01T19:58:17.341Z,12.00
2022-10-01T20:00:47.206Z,12.00
2022-10-01T20:03:23.444Z,12.00
2022-10-01T20:05:54.247Z,12.00
2022-10-01T20:08:33.923Z,12.10
2022-10-01T20:11:13.087Z,12.10
2022-10-01T20:13:57.430Z,12.10
2022-10-01T20:16:31.040Z,12.00
2022-10-01T20:19:10.943Z,12.00
2022-10-01T20:21:47.454Z,12.00
2022-10-01T20:24:40.120Z,12.00
2022-10-01T20:27:19.946Z,12.00
2022-10-01T20:29:57.301Z,12.00
2022-10-01T20:32:30.777Z,11.90
2022-10-01T20:35:10.594Z,11.90
2022-10-01T20:37:52.659Z,11.90
2022-10-01T20:40:24.963Z,11.90
2022-10-01T20:42:57.578Z,11.90
2022-10-01T20:45:29.763Z,11.80
2022-10-01T20:47:59.984Z,11.80
2022-10-01T20:50:32.301Z,11.90
2022-10-01T20:53:17.538Z,11.90
2022-10-01T20:55:49.940Z,11.80
2022-10-01T20:58:23.399Z,11.80
2022-10-01T21:00:59.297Z,11.80
2022-10-01T21:03:31.702Z,11.80
2022-10-01T21:06:04.686Z,11.80
2022-10-01T21:08:39.371Z,11.80
2022-10-01T21:11:14.348Z,11.80
2022-10-01T21:13:49.319Z,11.90
2022-10-01T21:16:38.276Z,11.80
2022-10-01T21:19:18.418Z,11.90
2022-10-01T21:21:57.050Z,11.80
2022-10-01T21:24:37.595Z,11.80
2022-10-01T21:27:21.608Z,11.80
2022-10-01T21:30:05.616Z,11.80
2022-10-01T21:32:53.622Z,11.80
2022-10-01T21:35:29.853Z,11.80
2022-10-01T21:38:04.005Z,11.80
2022-10-01T21:40:42.430Z,11.80
2022-10-01T21:43:19.587Z,11.80
2022-10-01T21:45:54.461Z,11.80
2022-10-01T21:48:36.832Z,11.80
2022-10-01T21:51:15.579Z,11.80
2022-10-01T21:54:07.796Z,11.80
2022-10-01T21:56:56.264Z,11.80
2022-10-01T21:59:44.711Z,11.70
2022-10-01T22:02:30.322Z,11.80
2022-10-01T22:05:06.199Z,11.70
2022-10-01T22:07:38.457Z,11.80
2022-10-01T22:10:14.343Z,11.70
2022-10-01T22:12:46.843Z,11.70
2022-10-01T22:15:23.436Z,11.80
2022-10-01T22:17:53.619Z,11.70
2022-10-01T22:20:27.718Z,11.70
2022-10-01T22:22:59.427Z,11.70
2022-10-01T22:25:29.659Z,11.70
2022-10-01T22:28:02.839Z,11.70
2022-10-01T22:30:35.428Z,11.70
2022-10-01T22:33:09.924Z,11.70
2022-10-01T22:35:44.042Z,11.70
2022-10-01T22:38:18.142Z,11.70
2022-10-01T22:40:47.736Z,11.70
2022-10-01T22:43:16.066Z,11.70
2022-10-01T22:45:57.480Z,11.70
2022-10-01T22:48:42.743Z,11.70
2022-10-01T22:51:30.310Z,11.70
2022-10-01T22:54:13.616Z,11.80
2022-10-01T22:56:50.127Z,11.80
2022-10-01T22:59:26.458Z,11.80
2022-10-01T23:02:01.784Z,11.80
2022-10-01T23:04:49.832Z,11.80
2022-10-01T23:07:26.466Z,11.70
2022-10-01T23:10:01.395Z,11.70
2022-10-01T23:12:38.953Z,11.70
2022-10-01T23:15:18.668Z,11.70
2022-10-01T23:17:54.904Z,11.70
2022-10-01T23:20:30.803Z,11.70
2022-10-01T23:23:21.162Z,11.70
2022-10-01T23:26:14.394Z,11.70
2022-10-01T23:28:54.916Z,11.70
2022-10-01T23:31:28.737Z,11.70
2022-10-01T23:34:10.487Z,11.70
2022-10-01T23:36:47.949Z,11.80
2022-10-01T23:39:41.239Z,11.80
2022-10-01T23:42:20.764Z,11.80
2022-10-01T23:45:03.122Z,11.80
2022-10-01T23:47:37.215Z,11.80
2022-10-01T23:50:08.711Z,11.80
2022-10-01T23:52:43.312Z,11.80
2022-10-01T23:55:36.727Z,11.80
2022-10-01T23:58:07.080Z,11.80
